createdAt,value
2023-03-07T00:00:33.704Z,4.53
2023-03-07T00:03:37.049Z,4.56
2023-03-07T00:06:39.194Z,4.53
2023-03-07T00:09:41.544Z,4.54
2023-03-07T00:12:43.829Z,4.53
2023-03-07T00:15:45.816Z,4.50
2023-03-07T00:18:48.531Z,4.56
2023-03-07T00:21:50.638Z,4.56
2023-03-07T00:24:52.718Z,4.52
2023-03-07T00:27:54.930Z,4.55
2023-03-07T00:31:01.140Z,4.53
2023-03-07T00:34:05.497Z,4.49
2023-03-07T00:37:07.595Z,4.47
2023-03-07T00:40:10.395Z,4.46
2023-03-07T00:43:12.442Z,4.43
2023-03-07T00:46:16.445Z,4.48
2023-03-07T00:49:20.514Z,4.50
2023-03-07T00:52:22.557Z,4.52
2023-03-07T00:55:24.517Z,4.54
2023-03-07T00:58:32.626Z,4.54
2023-03-07T01:01:34.674Z,4.56
2023-03-07T01:04:36.877Z,4.54
2023-03-07T01:07:38.920Z,4.53
2023-03-07T01:10:41.326Z,4.51
2023-03-07T01:13:43.868Z,4.52
2023-03-07T01:16:46.021Z,4.51
2023-03-07T01:19:48.164Z,4.51
2023-03-07T01:22:50.228Z,4.51
2023-03-07T01:25:52.284Z,4.53
2023-03-07T01:28:56.626Z,4.51
2023-03-07T01:31:58.997Z,4.50
2023-03-07T01:35:01.137Z,4.51
2023-03-07T01:38:03.903Z,4.49
2023-03-07T01:41:05.998Z,4.53
2023-03-07T01:44:17.872Z,4.48
2023-03-07T01:47:19.910Z,4.46
2023-03-07T01:50:22.165Z,4.45
2023-03-07T01:53:24.216Z,4.47
2023-03-07T01:56:26.607Z,4.48
2023-03-07T01:59:42.675Z,4.42
2023-03-07T02:02:49.783Z,4.47
2023-03-07T02:06:01.938Z,4.48
2023-03-07T02:09:12.378Z,4.44
2023-03-07T02:12:14.916Z,4.46
2023-03-07T02:15:17.112Z,4.42
2023-03-07T02:18:24.493Z,4.43
2023-03-07T02:21:49.070Z,4.43
2023-03-07T02:25:01.548Z,4.37
2023-03-07T02:28:04.614Z,4.39
2023-03-07T02:31:07.566Z,4.37
2023-03-07T02:34:30.213Z,4.37
2023-03-07T02:37:37.240Z,4.39
2023-03-07T02:40:40.239Z,4.32
2023-03-07T02:43:42.277Z,4.30
2023-03-07T02:46:44.393Z,4.33
2023-03-07T02:49:46.412Z,4.34
2023-03-07T02:52:49.827Z,4.38
2023-03-07T02:55:51.840Z,4.39
2023-03-07T02:58:54.032Z,4.37
2023-03-07T03:01:57.862Z,4.38
2023-03-07T03:04:59.915Z,4.39
2023-03-07T03:08:02.033Z,4.40
2023-03-07T03:11:04.169Z,4.41
2023-03-07T03:14:06.623Z,4.42
2023-03-07T03:17:08.579Z,4.45
2023-03-07T03:20:12.900Z,4.45
2023-03-07T03:23:14.978Z,4.45
2023-03-07T03:26:17.230Z,4.43
2023-03-07T03:29:19.608Z,4.49
2023-03-07T03:32:22.038Z,4.51
2023-03-07T03:35:24.158Z,4.55
2023-03-07T03:38:26.944Z,4.51
2023-03-07T03:41:28.961Z,4.53
2023-03-07T03:44:31.082Z,4.51
2023-03-07T03:47:33.133Z,4.45
2023-03-07T03:50:35.799Z,4.37
2023-03-07T03:53:39.745Z,4.37
2023-03-07T03:56:41.769Z,4.36
2023-03-07T03:59:44.115Z,4.28
2023-03-07T04:02:47.228Z,4.30
2023-03-07T04:05:49.342Z,4.31
2023-03-07T04:08:52.436Z,4.34
2023-03-07T04:11:54.416Z,4.28
2023-03-07T04:14:56.923Z,4.19
2023-03-07T04:17:58.976Z,4.12
2023-03-07T04:21:01.557Z,4.09
2023-03-07T04:24:03.852Z,4.04
2023-03-07T04:27:07.479Z,3.99
2023-03-07T04:30:10.231Z,3.94
2023-03-07T04:33:12.944Z,3.94
2023-03-07T04:36:18.409Z,3.85
2023-03-07T04:39:20.527Z,3.80
2023-03-07T04:42:22.737Z,3.70
2023-03-07T04:45:24.872Z,3.60
2023-03-07T04:48:26.865Z,3.55
2023-03-07T04:51:29.932Z,3.47
2023-03-07T04:54:32.003Z,3.48
2023-03-07T04:57:34.349Z,3.46
2023-03-07T05:00:36.376Z,3.46
2023-03-07T05:03:38.477Z,3.45
2023-03-07T05:06:40.686Z,3.44
2023-03-07T05:09:42.704Z,3.37
2023-03-07T05:12:45.016Z,3.35
2023-03-07T05:15:57.693Z,3.36
2023-03-07T05:19:00.957Z,3.36
2023-03-07T05:22:03.466Z,3.32
2023-03-07T05:25:06.532Z,3.31
2023-03-07T05:28:08.849Z,3.27
2023-03-07T05:31:10.859Z,3.24
2023-03-07T05:34:13.311Z,3.22
2023-03-07T05:37:15.304Z,3.19
2023-03-07T05:40:18.436Z,3.17
2023-03-07T05:43:20.558Z,3.16
2023-03-07T05:46:22.661Z,3.17
2023-03-07T05:49:25.164Z,3.15
2023-03-07T05:52:29.053Z,3.16
2023-03-07T05:55:31.021Z,3.17
2023-03-07T05:58:33.116Z,3.19
2023-03-07T06:01:35.516Z,3.19
2023-03-07T06:04:37.575Z,3.22
2023-03-07T06:07:39.678Z,3.19
2023-03-07T06:10:43.194Z,3.19
2023-03-07T06:13:45.926Z,3.15
2023-03-07T06:16:47.995Z,3.21
2023-03-07T06:19:50.796Z,3.18
2023-03-07T06:22:52.846Z,3.17
2023-03-07T06:25:54.965Z,3.16
2023-03-07T06:28:57.134Z,3.16
2023-03-07T06:31:59.899Z,3.16
2023-03-07T06:35:01.956Z,3.19
2023-03-07T06:38:05.078Z,3.19
2023-03-07T06:41:07.655Z,3.22
2023-03-07T06:44:11.058Z,3.20
2023-03-07T06:47:13.097Z,3.20
2023-03-07T06:50:17.609Z,3.26
2023-03-07T06:53:21.464Z,3.35
2023-03-07T06:56:23.507Z,3.43
2023-03-07T06:59:25.779Z,3.40
2023-03-07T07:02:27.915Z,3.49
2023-03-07T07:05:30.082Z,3.44
2023-03-07T07:08:32.298Z,3.36
2023-03-07T07:11:34.979Z,3.39
2023-03-07T07:14:37.359Z,3.37
2023-03-07T07:17:39.324Z,3.40
2023-03-07T07:20:41.599Z,3.46
2023-03-07T07:23:43.777Z,3.42
2023-03-07T07:26:45.958Z,3.43
2023-03-07T07:29:48.090Z,3.42
2023-03-07T07:32:50.786Z,3.41
2023-03-07T07:35:53.337Z,3.42
2023-03-07T07:38:55.469Z,3.35
2023-03-07T07:41:57.602Z,3.39
2023-03-07T07:44:59.696Z,3.41
2023-03-07T07:48:01.737Z,3.44
2023-03-07T07:51:04.890Z,3.42
2023-03-07T07:54:09.068Z,3.40
2023-03-07T07:57:11.189Z,3.42
2023-03-07T08:00:14.329Z,3.40
2023-03-07T08:03:16.596Z,3.37
2023-03-07T08:06:24.874Z,3.37
2023-03-07T08:09:27.007Z,3.40
2023-03-07T08:12:29.020Z,3.43
2023-03-07T08:15:31.096Z,3.45
2023-03-07T08:18:34.607Z,3.50
2023-03-07T08:21:36.919Z,3.44
2023-03-07T08:24:41.103Z,3.51
2023-03-07T08:27:43.315Z,3.47
2023-03-07T08:30:45.457Z,3.46
2023-03-07T08:33:47.878Z,3.48
2023-03-07T08:36:49.957Z,3.50
2023-03-07T08:39:52.235Z,3.53
2023-03-07T08:42:55.347Z,3.57
2023-03-07T08:45:58.510Z,3.53
2023-03-07T08:49:00.695Z,3.47
2023-03-07T08:52:03.205Z,3.43
2023-03-07T08:55:05.847Z,3.43
2023-03-07T08:58:07.972Z,3.48
2023-03-07T09:01:10.405Z,3.53
2023-03-07T09:04:12.462Z,3.53
2023-03-07T09:07:14.516Z,3.54
2023-03-07T09:10:19.415Z,3.54
2023-03-07T09:13:21.718Z,3.55
2023-03-07T09:16:24.022Z,3.60
2023-03-07T09:19:26.500Z,3.63
2023-03-07T09:22:28.590Z,3.56
2023-03-07T09:25:31.472Z,3.66
2023-03-07T09:28:33.611Z,3.67
2023-03-07T09:31:35.801Z,3.65
2023-03-07T09:34:38.049Z,3.70
2023-03-07T09:37:40.023Z,3.63
2023-03-07T09:40:47.168Z,3.63
2023-03-07T09:44:13.186Z,3.60
2023-03-07T09:47:33.722Z,3.65
2023-03-07T09:50:55.306Z,3.64
2023-03-07T09:54:03.059Z,3.67
2023-03-07T09:57:07.119Z,3.72
2023-03-07T10:00:48.219Z,3.73
2023-03-07T10:03:56.053Z,3.85
2023-03-07T10:06:59.967Z,3.90
2023-03-07T10:10:11.144Z,3.98
2023-03-07T10:13:16.821Z,3.90
2023-03-07T10:16:43.088Z,3.99
2023-03-07T10:19:51.474Z,4.01
2023-03-07T10:23:01.980Z,4.04
2023-03-07T10:26:13.081Z,4.04
2023-03-07T10:29:19.533Z,4.07
2023-03-07T10:32:41.719Z,4.12
2023-03-07T10:35:48.998Z,4.24
2023-03-07T10:39:12.223Z,4.30
2023-03-07T10:42:17.084Z,4.32
2023-03-07T10:45:19.383Z,4.39
2023-03-07T10:48:22.338Z,4.58
2023-03-07T10:51:43.900Z,4.80
2023-03-07T10:54:45.889Z,4.96
2023-03-07T10:57:47.911Z,5.09
2023-03-07T11:01:01.275Z,4.96
2023-03-07T11:04:05.288Z,5.08
2023-03-07T11:07:31.072Z,5.00
2023-03-07T11:10:39.641Z,5.08
2023-03-07T11:13:41.888Z,5.04
2023-03-07T11:17:01.439Z,4.92
2023-03-07T11:20:06.786Z,4.95
2023-03-07T11:23:23.479Z,5.00
2023-03-07T11:26:25.566Z,4.97
2023-03-07T11:29:33.742Z,4.92
2023-03-07T11:32:40.366Z,5.00
2023-03-07T11:36:02.696Z,4.96
2023-03-07T11:39:08.241Z,4.88
2023-03-07T11:42:22.650Z,5.08
2023-03-07T11:46:01.707Z,5.13
2023-03-07T11:49:22.678Z,5.29
2023-03-07T11:53:02.281Z,5.40
2023-03-07T11:56:25.912Z,5.43
2023-03-07T11:59:51.339Z,5.42
2023-03-07T12:03:25.036Z,5.51
2023-03-07T12:07:18.297Z,5.54
2023-03-07T12:10:36.121Z,5.57
2023-03-07T12:13:49.990Z,5.51
2023-03-07T12:17:10.717Z,5.56
2023-03-07T12:20:48.236Z,5.57
2023-03-07T12:23:58.490Z,5.67
2023-03-07T12:27:16.721Z,5.63
2023-03-07T12:30:25.397Z,5.68
2023-03-07T12:33:40.525Z,5.85
2023-03-07T12:36:56.576Z,5.81
2023-03-07T12:40:21.439Z,5.87
2023-03-07T12:43:37.861Z,5.68
2023-03-07T12:46:54.327Z,5.75
2023-03-07T12:50:05.337Z,5.79
2023-03-07T12:53:07.429Z,5.75
2023-03-07T12:56:20.274Z,5.96
2023-03-07T12:59:23.556Z,6.16
2023-03-07T13:02:41.599Z,6.40
2023-03-07T13:05:44.861Z,6.50
2023-03-07T13:08:50.033Z,6.68
2023-03-07T13:12:16.207Z,7.05
2023-03-07T13:15:18.215Z,7.02
2023-03-07T13:18:29.524Z,7.03
2023-03-07T13:21:33.280Z,7.09
2023-03-07T13:24:38.443Z,7.15
2023-03-07T13:27:40.407Z,7.34
2023-03-07T13:31:11.460Z,7.81
2023-03-07T13:34:46.559Z,7.77
2023-03-07T13:37:50.124Z,7.59
2023-03-07T13:40:55.171Z,7.79
2023-03-07T13:44:00.003Z,8.02
2023-03-07T13:47:02.853Z,7.99
2023-03-07T13:50:33.981Z,7.97
2023-03-07T13:53:53.347Z,7.99
2023-03-07T13:56:55.411Z,8.03
2023-03-07T13:59:57.617Z,7.91
2023-03-07T14:03:00.684Z,7.91
2023-03-07T14:06:11.508Z,7.62
2023-03-07T14:09:23.546Z,7.64
2023-03-07T14:13:05.626Z,7.49
2023-03-07T14:16:47.321Z,7.53
2023-03-07T14:20:01.341Z,7.51
2023-03-07T14:23:24.694Z,7.62
2023-03-07T14:26:33.672Z,7.61
2023-03-07T14:29:36.847Z,7.46
2023-03-07T14:32:41.014Z,7.53
2023-03-07T14:35:44.932Z,7.63
2023-03-07T14:38:48.818Z,7.60
2023-03-07T14:42:22.460Z,7.79
2023-03-07T14:46:21.277Z,7.81
2023-03-07T14:49:31.271Z,7.93
2023-03-07T14:52:34.041Z,7.92
2023-03-07T14:55:40.018Z,7.71
2023-03-07T14:58:51.347Z,7.65
2023-03-07T15:01:54.694Z,7.73
2023-03-07T15:04:57.054Z,7.76
2023-03-07T15:07:59.438Z,7.82
2023-03-07T15:11:13.365Z,7.84
2023-03-07T15:14:22.074Z,7.79
2023-03-07T15:17:34.978Z,7.64
2023-03-07T15:20:37.333Z,7.61
2023-03-07T15:23:40.128Z,7.61
2023-03-07T15:26:56.124Z,7.60
2023-03-07T15:30:29.776Z,7.48
2023-03-07T15:33:33.103Z,7.54
2023-03-07T15:36:37.499Z,7.53
2023-03-07T15:39:39.600Z,7.45
2023-03-07T15:42:53.090Z,7.42
2023-03-07T15:46:19.172Z,7.39
2023-03-07T15:49:46.439Z,7.40
2023-03-07T15:52:52.358Z,7.37
2023-03-07T15:56:00.799Z,7.34
2023-03-07T15:59:17.113Z,7.30
2023-03-07T16:02:32.165Z,7.27
2023-03-07T16:05:37.868Z,7.20
2023-03-07T16:08:40.151Z,7.04
2023-03-07T16:11:43.686Z,6.99
2023-03-07T16:14:48.675Z,6.97
2023-03-07T16:17:53.377Z,7.02
2023-03-07T16:20:55.874Z,7.05
2023-03-07T16:23:57.942Z,7.03
2023-03-07T16:27:00.186Z,7.01
2023-03-07T16:30:02.353Z,7.04
2023-03-07T16:33:05.299Z,7.04
2023-03-07T16:36:08.921Z,7.06
2023-03-07T16:39:12.561Z,7.07
2023-03-07T16:42:22.418Z,7.01
2023-03-07T16:45:28.902Z,7.04
2023-03-07T16:48:31.875Z,7.03
2023-03-07T16:51:34.534Z,7.00
2023-03-07T16:54:37.166Z,7.02
2023-03-07T16:57:40.905Z,6.92
2023-03-07T17:00:43.271Z,6.83
2023-03-07T17:03:46.171Z,6.79
2023-03-07T17:06:57.684Z,6.74
2023-03-07T17:10:03.257Z,6.70
2023-03-07T17:13:09.908Z,6.67
2023-03-07T17:16:16.158Z,6.71
2023-03-07T17:19:26.317Z,6.73
2023-03-07T17:22:29.089Z,6.68
2023-03-07T17:25:31.702Z,6.69
2023-03-07T17:28:35.514Z,6.67
2023-03-07T17:31:37.841Z,6.65
2023-03-07T17:34:40.546Z,6.68
2023-03-07T17:37:45.429Z,6.69
2023-03-07T17:40:57.747Z,6.63
2023-03-07T17:44:00.984Z,6.55
2023-03-07T17:47:03.943Z,6.47
2023-03-07T17:50:09.403Z,6.39
2023-03-07T17:53:13.176Z,6.39
2023-03-07T17:56:16.347Z,6.36
2023-03-07T17:59:19.667Z,6.33
2023-03-07T18:02:22.764Z,6.23
2023-03-07T18:05:27.137Z,6.29
2023-03-07T18:08:30.034Z,6.25
2023-03-07T18:11:34.951Z,6.20
2023-03-07T18:14:38.901Z,6.15
2023-03-07T18:17:48.355Z,6.09
2023-03-07T18:20:59.890Z,6.18
2023-03-07T18:24:02.853Z,6.23
2023-03-07T18:27:09.223Z,6.19
2023-03-07T18:30:12.497Z,6.17
2023-03-07T18:33:15.596Z,6.05
2023-03-07T18:36:27.513Z,6.09
2023-03-07T18:39:30.644Z,6.12
2023-03-07T18:42:34.270Z,6.18
2023-03-07T18:45:43.657Z,6.20
2023-03-07T18:48:48.059Z,6.21
2023-03-07T18:51:51.209Z,6.24
2023-03-07T18:54:54.504Z,6.32
2023-03-07T18:57:57.645Z,6.37
2023-03-07T19:01:30.358Z,6.43
2023-03-07T19:04:34.592Z,6.44
2023-03-07T19:07:37.391Z,6.39
2023-03-07T19:10:40.804Z,6.39
2023-03-07T19:13:46.251Z,6.44
2023-03-07T19:16:49.582Z,6.41
2023-03-07T19:19:59.391Z,6.56
2023-03-07T19:23:04.124Z,6.59
2023-03-07T19:26:10.014Z,6.66
2023-03-07T19:29:13.788Z,6.65
2023-03-07T19:32:19.474Z,6.66
2023-03-07T19:35:22.697Z,6.65
2023-03-07T19:38:25.992Z,6.70
2023-03-07T19:41:32.057Z,6.75
2023-03-07T19:44:36.889Z,6.75
2023-03-07T19:47:39.728Z,6.79
2023-03-07T19:50:42.425Z,6.80
2023-03-07T19:53:48.576Z,6.79
2023-03-07T19:56:51.527Z,6.80
2023-03-07T19:59:56.883Z,6.86
2023-03-07T20:03:00.936Z,6.94
2023-03-07T20:06:05.495Z,7.03
2023-03-07T20:09:09.275Z,7.09
2023-03-07T20:12:12.853Z,7.15
2023-03-07T20:15:15.690Z,7.19
2023-03-07T20:18:20.400Z,7.29
2023-03-07T20:21:27.775Z,7.30
2023-03-07T20:24:30.945Z,7.36
2023-03-07T20:27:34.034Z,7.33
2023-03-07T20:30:37.246Z,7.26
2023-03-07T20:33:41.549Z,7.27
2023-03-07T20:36:50.461Z,7.25
2023-03-07T20:39:53.898Z,7.24
2023-03-07T20:42:56.973Z,7.31
2023-03-07T20:46:09.869Z,7.34
2023-03-07T20:49:15.748Z,7.38
2023-03-07T20:52:20.026Z,7.43
2023-03-07T20:55:23.776Z,7.49
2023-03-07T20:58:30.088Z,7.50
2023-03-07T21:01:35.384Z,7.47
2023-03-07T21:04:39.470Z,7.45
2023-03-07T21:07:42.858Z,7.48
2023-03-07T21:10:45.757Z,7.51
2023-03-07T21:13:49.973Z,7.66
2023-03-07T21:16:53.011Z,7.62
2023-03-07T21:19:57.826Z,7.67
2023-03-07T21:23:00.822Z,7.67
2023-03-07T21:26:14.886Z,7.76
2023-03-07T21:29:17.858Z,7.79
2023-03-07T21:32:20.572Z,7.88
2023-03-07T21:35:25.343Z,7.93
2023-03-07T21:38:28.513Z,7.93
2023-03-07T21:41:31.807Z,8.05
2023-03-07T21:44:35.677Z,8.00
2023-03-07T21:47:38.579Z,7.96
2023-03-07T21:50:45.236Z,7.92
2023-03-07T21:53:47.618Z,7.89
2023-03-07T21:56:50.096Z,7.84
2023-03-07T21:59:52.430Z,7.79
2023-03-07T22:02:54.469Z,7.73
2023-03-07T22:05:57.475Z,7.63
2023-03-07T22:09:00.401Z,7.55
2023-03-07T22:12:02.844Z,7.48
2023-03-07T22:15:05.299Z,7.46
2023-03-07T22:18:07.481Z,7.35
2023-03-07T22:21:14.133Z,7.33
2023-03-07T22:24:16.596Z,7.27
2023-03-07T22:27:19.025Z,7.21
2023-03-07T22:30:21.441Z,7.13
2023-03-07T22:33:23.628Z,7.09
2023-03-07T22:36:25.716Z,7.05
2023-03-07T22:39:28.265Z,7.03
2023-03-07T22:42:30.474Z,7.03
2023-03-07T22:45:32.684Z,6.97
2023-03-07T22:48:35.179Z,6.92
2023-03-07T22:51:37.952Z,6.91
2023-03-07T22:54:43.673Z,6.86
2023-03-07T22:57:45.731Z,6.81
2023-03-07T23:00:48.163Z,6.77
2023-03-07T23:03:51.560Z,6.70
2023-03-07T23:06:53.702Z,6.65
2023-03-07T23:09:55.803Z,6.63
2023-03-07T23:12:58.761Z,6.59
2023-03-07T23:16:05.883Z,6.59
2023-03-07T23:19:08.433Z,6.63
2023-03-07T23:22:10.775Z,6.67
2023-03-07T23:25:15.102Z,6.67
2023-03-07T23:28:17.157Z,6.66
2023-03-07T23:31:39.330Z,6.56
2023-03-07T23:34:41.428Z,6.52
2023-03-07T23:37:43.646Z,6.56
2023-03-07T23:40:45.748Z,6.66
2023-03-07T23:43:52.579Z,6.60
2023-03-07T23:46:54.676Z,6.62
2023-03-07T23:49:56.956Z,6.59
2023-03-07T23:52:59.080Z,6.52
2023-03-07T23:56:01.156Z,6.47
2023-03-07T23:59:03.307Z,6.50
